createdAt,value
2018-11-22T00:00:32.116Z,0
2018-11-22T00:01:34.120Z,0
2018-11-22T00:02:36.138Z,0
2018-11-22T00:03:38.436Z,0
2018-11-22T00:04:40.438Z,0
2018-11-22T00:05:42.458Z,0
2018-11-22T00:06:44.462Z,0
2018-11-22T00:07:46.478Z,0
2018-11-22T00:08:48.478Z,0
2018-11-22T00:09:50.493Z,0
2018-11-22T00:10:52.503Z,0
2018-11-22T00:11:54.505Z,0
2018-11-22T00:12:56.529Z,0
2018-11-22T00:13:58.529Z,0
2018-11-22T00:15:00.544Z,0
2018-11-22T00:16:02.560Z,0
2018-11-22T00:17:04.575Z,0
2018-11-22T00:18:06.578Z,0
2018-11-22T00:19:08.589Z,0
2018-11-22T00:20:10.592Z,0
2018-11-22T00:21:12.885Z,0
2018-11-22T00:22:14.905Z,0
2018-11-22T00:23:16.910Z,0
2018-11-22T00:24:19.300Z,0
2018-11-22T00:25:21.320Z,0
2018-11-22T00:26:23.901Z,0
2018-11-22T00:27:25.915Z,0
2018-11-22T00:28:28.317Z,0
2018-11-22T00:29:30.316Z,0
2018-11-22T00:30:32.333Z,0
2018-11-22T00:31:34.628Z,0
2018-11-22T00:32:36.645Z,0
2018-11-22T00:33:38.646Z,0
2018-11-22T00:34:40.663Z,0
2018-11-22T00:35:42.667Z,0
2018-11-22T00:36:44.673Z,0
2018-11-22T00:37:46.699Z,0
2018-11-22T00:38:48.700Z,0
2018-11-22T00:39:50.716Z,0
2018-11-22T00:40:53.022Z,0
2018-11-22T00:41:55.354Z,0
2018-11-22T00:42:57.363Z,0
2018-11-22T00:44:00.056Z,0
2018-11-22T00:45:02.076Z,0
2018-11-22T00:46:04.645Z,0
2018-11-22T00:47:06.660Z,0
2018-11-22T00:48:08.672Z,0
2018-11-22T00:49:10.689Z,0
2018-11-22T00:50:12.703Z,0
2018-11-22T00:51:15.092Z,0
2018-11-22T00:52:17.104Z,0
2018-11-22T00:53:19.112Z,0
2018-11-22T00:54:21.122Z,0
2018-11-22T00:55:23.141Z,0
2018-11-22T00:56:25.148Z,0
2018-11-22T00:57:27.434Z,0
2018-11-22T00:58:29.453Z,0
2018-11-22T00:59:31.456Z,0
2018-11-22T01:00:33.469Z,0
2018-11-22T01:01:35.493Z,0
2018-11-22T01:02:37.771Z,0
2018-11-22T01:03:39.787Z,0
2018-11-22T01:04:41.805Z,0
2018-11-22T01:05:43.821Z,0
2018-11-22T01:06:45.826Z,0
2018-11-22T01:07:48.135Z,0
2018-11-22T01:08:50.128Z,0
2018-11-22T01:09:52.131Z,0
2018-11-22T01:10:54.154Z,0
2018-11-22T01:11:56.541Z,0
2018-11-22T01:12:58.558Z,0
2018-11-22T01:14:00.568Z,0
2018-11-22T01:15:02.978Z,0
2018-11-22T01:16:04.987Z,0
2018-11-22T01:17:06.996Z,0
2018-11-22T01:18:09.016Z,0
2018-11-22T01:19:11.404Z,0
2018-11-22T01:20:13.706Z,0
2018-11-22T01:21:15.709Z,0
2018-11-22T01:22:17.715Z,0
2018-11-22T01:23:19.719Z,0
2018-11-22T01:24:21.742Z,0
2018-11-22T01:25:23.753Z,0
2018-11-22T01:26:25.766Z,0
2018-11-22T01:27:27.784Z,0
2018-11-22T01:28:29.786Z,0
2018-11-22T01:29:32.188Z,0
2018-11-22T01:30:34.205Z,0
2018-11-22T01:31:36.203Z,0
2018-11-22T01:32:38.222Z,0
2018-11-22T01:33:40.244Z,0
2018-11-22T01:34:42.242Z,0
2018-11-22T01:35:44.863Z,0
2018-11-22T01:36:46.869Z,0
2018-11-22T01:37:48.877Z,0
2018-11-22T01:38:50.883Z,0
2018-11-22T01:39:53.211Z,0
2018-11-22T01:40:55.218Z,0
2018-11-22T01:41:57.285Z,0
2018-11-22T01:42:59.598Z,0
2018-11-22T01:44:01.598Z,0
2018-11-22T01:45:03.625Z,0
2018-11-22T01:46:05.630Z,0
2018-11-22T01:47:07.650Z,0
2018-11-22T01:48:09.649Z,0
2018-11-22T01:49:11.666Z,0
2018-11-22T01:50:13.961Z,0
2018-11-22T01:51:15.968Z,0
2018-11-22T01:52:17.988Z,0
2018-11-22T01:53:19.989Z,0
2018-11-22T01:54:22.006Z,0
2018-11-22T01:55:24.020Z,0
2018-11-22T01:56:26.034Z,0
2018-11-22T01:57:28.039Z,0
2018-11-22T01:58:30.049Z,0
2018-11-22T01:59:32.061Z,0
2018-11-22T02:00:34.353Z,0
2018-11-22T02:01:36.378Z,0
2018-11-22T02:02:38.385Z,0
2018-11-22T02:03:40.403Z,0
2018-11-22T02:04:42.687Z,0
2018-11-22T02:05:44.708Z,0
2018-11-22T02:06:46.721Z,0
2018-11-22T02:07:49.008Z,0
2018-11-22T02:08:51.329Z,0
2018-11-22T02:09:53.331Z,0
2018-11-22T02:10:55.336Z,0
2018-11-22T02:11:57.344Z,0
2018-11-22T02:12:59.366Z,0
2018-11-22T02:14:01.684Z,0
2018-11-22T02:15:04.265Z,0
2018-11-22T02:16:06.856Z,0
2018-11-22T02:17:08.859Z,0
2018-11-22T02:18:10.876Z,0
2018-11-22T02:19:12.879Z,0
2018-11-22T02:20:14.899Z,0
2018-11-22T02:21:17.196Z,0
2018-11-22T02:22:19.491Z,0
2018-11-22T02:23:21.502Z,0
2018-11-22T02:24:23.507Z,0
2018-11-22T02:25:25.533Z,0
2018-11-22T02:26:27.536Z,0
2018-11-22T02:27:29.553Z,0
2018-11-22T02:28:31.571Z,0
2018-11-22T02:29:33.585Z,0
2018-11-22T02:30:35.593Z,0
2018-11-22T02:31:37.605Z,0
2018-11-22T02:32:39.906Z,0
2018-11-22T02:33:41.915Z,0
2018-11-22T02:34:44.217Z,0
2018-11-22T02:35:46.505Z,0
2018-11-22T02:36:48.511Z,0
2018-11-22T02:37:50.533Z,0
2018-11-22T02:38:52.836Z,0
2018-11-22T02:39:54.850Z,0
2018-11-22T02:40:56.864Z,0
2018-11-22T02:41:59.253Z,0
2018-11-22T02:43:01.271Z,0
2018-11-22T02:44:03.295Z,0
2018-11-22T02:45:05.597Z,0
2018-11-22T02:46:07.985Z,0
2018-11-22T02:47:10.287Z,0
2018-11-22T02:48:12.873Z,0
2018-11-22T02:49:14.881Z,0
2018-11-22T02:50:16.903Z,0
2018-11-22T02:51:19.290Z,0
2018-11-22T02:52:21.317Z,0
2018-11-22T02:53:23.327Z,0
2018-11-22T02:54:25.637Z,0
2018-11-22T02:55:27.929Z,0
2018-11-22T02:56:30.220Z,0
2018-11-22T02:57:32.235Z,0
2018-11-22T02:58:34.927Z,0
2018-11-22T02:59:36.946Z,0
2018-11-22T03:00:38.955Z,0
2018-11-22T03:01:40.960Z,0
2018-11-22T03:02:42.971Z,0
2018-11-22T03:03:45.267Z,0
2018-11-22T03:04:47.570Z,0
2018-11-22T03:05:49.584Z,0
2018-11-22T03:06:51.600Z,0
2018-11-22T03:07:53.885Z,0
2018-11-22T03:08:55.901Z,0
2018-11-22T03:09:58.489Z,0
2018-11-22T03:11:00.766Z,0
2018-11-22T03:12:03.099Z,0
2018-11-22T03:13:05.115Z,0
2018-11-22T03:14:07.119Z,0
2018-11-22T03:15:09.528Z,0
2018-11-22T03:16:11.532Z,0
2018-11-22T03:17:13.539Z,0
2018-11-22T03:18:15.829Z,0
2018-11-22T03:19:17.837Z,0
2018-11-22T03:20:19.850Z,0
2018-11-22T03:21:21.857Z,0
2018-11-22T03:22:24.160Z,0
2018-11-22T03:23:26.183Z,0
2018-11-22T03:24:28.180Z,0
2018-11-22T03:25:30.201Z,0
2018-11-22T03:26:32.210Z,0
2018-11-22T03:27:34.616Z,0
2018-11-22T03:28:36.904Z,0
2018-11-22T03:29:38.915Z,0
2018-11-22T03:30:40.933Z,0
2018-11-22T03:31:43.213Z,0
2018-11-22T03:32:45.236Z,0
2018-11-22T03:33:48.498Z,0
2018-11-22T03:34:50.781Z,0
2018-11-22T03:35:52.786Z,0
2018-11-22T03:36:54.804Z,0
2018-11-22T03:37:56.814Z,0
2018-11-22T03:38:58.830Z,0
2018-11-22T03:40:01.131Z,0
2018-11-22T03:41:03.529Z,0
2018-11-22T03:42:05.932Z,0
2018-11-22T03:43:08.231Z,0
2018-11-22T03:44:10.236Z,0
2018-11-22T03:45:12.251Z,0
2018-11-22T03:46:14.263Z,0
2018-11-22T03:47:16.557Z,0
2018-11-22T03:48:18.577Z,0
2018-11-22T03:49:20.586Z,0
2018-11-22T03:50:22.594Z,0
2018-11-22T03:51:24.600Z,0
2018-11-22T03:52:26.621Z,0
2018-11-22T03:53:28.639Z,0
2018-11-22T03:54:30.690Z,0
2018-11-22T03:55:32.708Z,0
2018-11-22T03:56:35.049Z,0
2018-11-22T03:57:37.052Z,0
2018-11-22T03:58:39.349Z,0
2018-11-22T03:59:41.365Z,0
2018-11-22T04:00:43.383Z,0
2018-11-22T04:01:45.392Z,0
2018-11-22T04:02:47.405Z,0
2018-11-22T04:03:49.421Z,0
2018-11-22T04:04:51.812Z,0
2018-11-22T04:05:54.115Z,0
2018-11-22T04:06:56.503Z,0
2018-11-22T04:07:58.507Z,0
2018-11-22T04:09:00.830Z,0
2018-11-22T04:10:02.847Z,0
2018-11-22T04:11:04.860Z,0
2018-11-22T04:12:07.547Z,0
2018-11-22T04:13:09.559Z,0
2018-11-22T04:14:11.564Z,0
2018-11-22T04:15:14.466Z,0
2018-11-22T04:16:16.489Z,0
2018-11-22T04:17:19.057Z,0
2018-11-22T04:18:21.073Z,0
2018-11-22T04:19:23.086Z,0
2018-11-22T04:20:25.097Z,0
2018-11-22T04:21:27.113Z,0
2018-11-22T04:22:29.119Z,0
2018-11-22T04:23:31.808Z,0
2018-11-22T04:24:34.113Z,0
2018-11-22T04:25:36.519Z,0
2018-11-22T04:26:38.916Z,0
2018-11-22T04:27:41.212Z,0
2018-11-22T04:28:43.239Z,0
2018-11-22T04:29:46.121Z,0
2018-11-22T04:30:48.140Z,0
2018-11-22T04:31:50.145Z,0
2018-11-22T04:32:52.448Z,0
2018-11-22T04:33:54.743Z,0
2018-11-22T04:34:56.757Z,0
2018-11-22T04:35:58.769Z,0
2018-11-22T04:37:01.068Z,0
2018-11-22T04:38:03.457Z,0
2018-11-22T04:39:05.483Z,0
2018-11-22T04:40:07.488Z,0
2018-11-22T04:41:09.776Z,0
2018-11-22T04:42:12.167Z,0
2018-11-22T04:43:14.856Z,0
2018-11-22T04:44:16.866Z,0
2018-11-22T04:45:19.269Z,0
2018-11-22T04:46:21.284Z,0
2018-11-22T04:47:23.289Z,0
2018-11-22T04:48:25.305Z,0
2018-11-22T04:49:27.711Z,0
2018-11-22T04:50:29.709Z,0
2018-11-22T04:51:32.112Z,0
2018-11-22T04:52:34.124Z,0
2018-11-22T04:53:36.130Z,0
2018-11-22T04:54:38.152Z,0
2018-11-22T04:55:40.162Z,0
2018-11-22T04:56:42.457Z,0
2018-11-22T04:57:44.464Z,0
2018-11-22T04:58:46.486Z,0
2018-11-22T04:59:48.494Z,0
2018-11-22T05:00:50.508Z,0
2018-11-22T05:01:52.526Z,0
2018-11-22T05:02:54.825Z,0
2018-11-22T05:03:56.844Z,0
2018-11-22T05:04:58.851Z,0
2018-11-22T05:06:01.187Z,0
2018-11-22T05:07:03.188Z,0
2018-11-22T05:08:05.209Z,0
2018-11-22T05:09:07.215Z,0
2018-11-22T05:10:09.223Z,0
2018-11-22T05:11:12.245Z,0
2018-11-22T05:12:14.234Z,0
2018-11-22T05:13:16.252Z,0
2018-11-22T05:14:18.269Z,0
2018-11-22T05:15:20.287Z,0
2018-11-22T05:16:22.289Z,0
2018-11-22T05:17:24.299Z,0
2018-11-22T05:18:26.610Z,0
2018-11-22T05:19:28.614Z,0
2018-11-22T05:20:30.941Z,0
2018-11-22T05:21:32.941Z,0
2018-11-22T05:22:34.948Z,0
2018-11-22T05:23:36.970Z,0
2018-11-22T05:24:38.976Z,0
2018-11-22T05:25:40.987Z,0
2018-11-22T05:26:43.595Z,0
2018-11-22T05:27:45.595Z,0
2018-11-22T05:28:47.615Z,0
2018-11-22T05:29:49.632Z,0
2018-11-22T05:30:51.647Z,0
2018-11-22T05:31:53.646Z,0
2018-11-22T05:32:55.663Z,0
2018-11-22T05:33:57.666Z,0
2018-11-22T05:34:59.672Z,0
2018-11-22T05:36:02.386Z,0
2018-11-22T05:37:04.394Z,0
2018-11-22T05:38:06.409Z,0
2018-11-22T05:39:08.800Z,0
2018-11-22T05:40:10.824Z,0
2018-11-22T05:41:12.832Z,0
2018-11-22T05:42:14.849Z,0
2018-11-22T05:43:16.864Z,0
2018-11-22T05:44:18.869Z,0
2018-11-22T05:45:20.885Z,0
2018-11-22T05:46:22.893Z,0
2018-11-22T05:47:24.901Z,0
2018-11-22T05:48:26.907Z,0
2018-11-22T05:49:28.924Z,0
2018-11-22T05:50:30.928Z,0
2018-11-22T05:51:32.937Z,0
2018-11-22T05:52:35.225Z,0
2018-11-22T05:53:37.246Z,0
2018-11-22T05:54:39.251Z,0
2018-11-22T05:55:41.255Z,0
2018-11-22T05:56:43.277Z,0
2018-11-22T05:57:45.282Z,0
2018-11-22T05:58:47.290Z,0
2018-11-22T05:59:49.306Z,0
2018-11-22T06:00:51.306Z,0
2018-11-22T06:01:53.327Z,0
2018-11-22T06:02:55.628Z,0
2018-11-22T06:03:57.638Z,0
2018-11-22T06:04:59.638Z,0
2018-11-22T06:06:01.663Z,0
2018-11-22T06:07:03.662Z,0
2018-11-22T06:08:05.675Z,0
2018-11-22T06:09:07.984Z,0
2018-11-22T06:10:09.988Z,0
2018-11-22T06:11:12.002Z,0
2018-11-22T06:12:14.007Z,0
2018-11-22T06:13:16.315Z,0
2018-11-22T06:14:18.700Z,0
2018-11-22T06:15:20.710Z,0
2018-11-22T06:16:22.726Z,0
2018-11-22T06:17:24.728Z,4
2018-11-22T06:18:26.753Z,0
2018-11-22T06:19:28.760Z,0
2018-11-22T06:20:31.054Z,4
2018-11-22T06:21:33.062Z,0
2018-11-22T06:22:35.080Z,4
2018-11-22T06:23:37.090Z,4
2018-11-22T06:24:39.107Z,8
2018-11-22T06:25:41.123Z,4
2018-11-22T06:26:43.506Z,8
2018-11-22T06:27:45.524Z,8
2018-11-22T06:28:47.527Z,8
2018-11-22T06:29:50.328Z,12
2018-11-22T06:30:52.333Z,12
2018-11-22T06:31:54.341Z,12
2018-11-22T06:32:56.355Z,16
2018-11-22T06:33:58.355Z,20
2018-11-22T06:35:00.925Z,24
2018-11-22T06:36:03.267Z,28
2018-11-22T06:37:05.286Z,32
2018-11-22T06:38:07.288Z,40
2018-11-22T06:39:09.306Z,44
2018-11-22T06:40:11.317Z,52
2018-11-22T06:41:13.706Z,64
2018-11-22T06:42:15.728Z,60
2018-11-22T06:43:18.110Z,64
2018-11-22T06:44:20.126Z,68
2018-11-22T06:45:22.128Z,76
2018-11-22T06:46:24.153Z,92
2018-11-22T06:47:26.160Z,96
2018-11-22T06:48:28.173Z,108
2018-11-22T06:49:30.191Z,112
2018-11-22T06:50:32.191Z,132
2018-11-22T06:51:34.597Z,156
2018-11-22T06:52:36.600Z,168
2018-11-22T06:53:38.605Z,168
2018-11-22T06:54:40.608Z,192
2018-11-22T06:55:42.623Z,200
2018-11-22T06:56:45.021Z,196
2018-11-22T06:57:47.034Z,212
2018-11-22T06:58:49.262Z,224
2018-11-22T06:59:51.261Z,224
2018-11-22T07:00:53.276Z,244
2018-11-22T07:01:55.305Z,248
2018-11-22T07:02:57.603Z,272
2018-11-22T07:03:59.620Z,264
2018-11-22T07:05:02.317Z,240
2018-11-22T07:06:04.695Z,224
2018-11-22T07:07:06.985Z,268
2018-11-22T07:08:09.296Z,288
2018-11-22T07:09:11.589Z,324
2018-11-22T07:10:13.602Z,340
2018-11-22T07:11:15.605Z,344
2018-11-22T07:12:17.620Z,356
2018-11-22T07:13:19.624Z,360
2018-11-22T07:14:21.628Z,404
2018-11-22T07:15:24.034Z,396
2018-11-22T07:16:26.037Z,432
2018-11-22T07:17:28.054Z,444
2018-11-22T07:18:30.060Z,484
2018-11-22T07:19:32.077Z,480
2018-11-22T07:20:34.084Z,540
2018-11-22T07:21:36.095Z,560
2018-11-22T07:22:38.112Z,564
2018-11-22T07:23:40.115Z,588
2018-11-22T07:24:42.136Z,560
2018-11-22T07:25:44.149Z,576
2018-11-22T07:26:46.448Z,592
2018-11-22T07:27:48.452Z,604
2018-11-22T07:28:50.468Z,628
2018-11-22T07:29:52.478Z,632
2018-11-22T07:30:54.498Z,648
2018-11-22T07:31:56.518Z,680
2018-11-22T07:32:58.521Z,724
2018-11-22T07:34:00.540Z,752
2018-11-22T07:35:02.861Z,772
2018-11-22T07:36:04.862Z,776
2018-11-22T07:37:06.879Z,816
2018-11-22T07:38:08.894Z,856
2018-11-22T07:39:10.902Z,856
2018-11-22T07:40:12.922Z,944
2018-11-22T07:41:15.208Z,1012
2018-11-22T07:42:17.217Z,1000
2018-11-22T07:43:19.222Z,1056
2018-11-22T07:44:21.246Z,1068
2018-11-22T07:45:23.252Z,1128
2018-11-22T07:46:25.266Z,1156
2018-11-22T07:47:27.281Z,1168
2018-11-22T07:48:29.279Z,1164
2018-11-22T07:49:31.305Z,1164
2018-11-22T07:50:33.311Z,1164
2018-11-22T07:51:35.619Z,1304
2018-11-22T07:52:37.621Z,1232
2018-11-22T07:53:39.645Z,1076
2018-11-22T07:54:41.658Z,1104
2018-11-22T07:55:43.667Z,1092
2018-11-22T07:56:45.692Z,1188
2018-11-22T07:57:47.692Z,1160
2018-11-22T07:58:49.708Z,1144
2018-11-22T07:59:51.723Z,1252
2018-11-22T08:00:53.741Z,1316
2018-11-22T08:01:55.749Z,1236
2018-11-22T08:02:57.759Z,1288
2018-11-22T08:04:00.148Z,1368
2018-11-22T08:05:02.156Z,1492
2018-11-22T08:06:04.177Z,1472
2018-11-22T08:07:06.186Z,1448
2018-11-22T08:08:08.188Z,1396
2018-11-22T08:09:10.486Z,1452
2018-11-22T08:10:12.496Z,1508
2018-11-22T08:11:14.507Z,1516
2018-11-22T08:12:16.802Z,1540
2018-11-22T08:13:18.804Z,1480
2018-11-22T08:14:21.106Z,1468
2018-11-22T08:15:23.124Z,1556
2018-11-22T08:16:25.432Z,1576
2018-11-22T08:17:27.721Z,1636
2018-11-22T08:18:29.739Z,1680
2018-11-22T08:19:31.751Z,1808
2018-11-22T08:20:33.757Z,1824
2018-11-22T08:21:38.259Z,1712
2018-11-22T08:22:40.660Z,1752
2018-11-22T08:23:42.672Z,1728
2018-11-22T08:24:44.684Z,1836
2018-11-22T08:25:46.970Z,1880
2018-11-22T08:26:48.988Z,2008
2018-11-22T08:27:50.998Z,2072
2018-11-22T08:28:53.005Z,2012
2018-11-22T08:29:55.030Z,1952
2018-11-22T08:30:57.422Z,1896
2018-11-22T08:31:59.831Z,1980
2018-11-22T08:33:02.140Z,2156
2018-11-22T08:34:04.158Z,2288
2018-11-22T08:35:06.163Z,2360
2018-11-22T08:36:08.560Z,2460
2018-11-22T08:37:10.957Z,2308
2018-11-22T08:38:13.012Z,2356
2018-11-22T08:39:15.032Z,2352
2018-11-22T08:40:17.038Z,2464
2018-11-22T08:41:19.041Z,2320
2018-11-22T08:42:21.067Z,2236
2018-11-22T08:43:23.072Z,2380
2018-11-22T08:44:25.078Z,2504
2018-11-22T08:45:27.095Z,2392
2018-11-22T08:46:29.095Z,2328
2018-11-22T08:47:31.108Z,2552
2018-11-22T08:48:33.428Z,2468
2018-11-22T08:49:35.443Z,2500
2018-11-22T08:50:37.441Z,2496
2018-11-22T08:51:39.457Z,2440
2018-11-22T08:52:41.460Z,2552
2018-11-22T08:53:43.487Z,2544
2018-11-22T08:54:45.796Z,2604
2018-11-22T08:55:47.798Z,2452
2018-11-22T08:56:49.816Z,2416
2018-11-22T08:57:51.824Z,2680
2018-11-22T08:58:53.845Z,2812
2018-11-22T08:59:56.147Z,2764
2018-11-22T09:00:58.158Z,2692
2018-11-22T09:02:00.166Z,2568
2018-11-22T09:03:02.197Z,2596
2018-11-22T09:04:04.193Z,2860
2018-11-22T09:05:06.210Z,3064
2018-11-22T09:06:08.547Z,3032
2018-11-22T09:07:10.570Z,2840
2018-11-22T09:08:12.897Z,2724
2018-11-22T09:09:14.927Z,2804
2018-11-22T09:10:16.951Z,3096
2018-11-22T09:11:18.981Z,3428
2018-11-22T09:12:21.314Z,3480
2018-11-22T09:13:23.352Z,3324
2018-11-22T09:14:25.763Z,3128
2018-11-22T09:15:31.362Z,3160
2018-11-22T09:16:33.821Z,3336
2018-11-22T09:17:35.857Z,3516
2018-11-22T09:18:37.903Z,3428
2018-11-22T09:19:39.913Z,3160
2018-11-22T09:20:41.959Z,3116
2018-11-22T09:21:43.989Z,3152
2018-11-22T09:22:46.032Z,3488
2018-11-22T09:23:48.336Z,3532
2018-11-22T09:24:50.372Z,3492
2018-11-22T09:25:52.408Z,3328
2018-11-22T09:26:54.818Z,3340
2018-11-22T09:27:56.876Z,3296
2018-11-22T09:28:58.896Z,3464
2018-11-22T09:30:01.213Z,3500
2018-11-22T09:31:03.540Z,3516
2018-11-22T09:32:05.639Z,3272
2018-11-22T09:33:07.659Z,3220
2018-11-22T09:34:10.321Z,3120
2018-11-22T09:35:12.382Z,3228
2018-11-22T09:36:15.501Z,3216
2018-11-22T09:37:17.566Z,3068
2018-11-22T09:38:20.255Z,2980
2018-11-22T09:39:22.301Z,3028
2018-11-22T09:40:24.329Z,3108
2018-11-22T09:41:26.740Z,3152
2018-11-22T09:42:28.778Z,3004
2018-11-22T09:43:30.810Z,2996
2018-11-22T09:44:32.845Z,3184
2018-11-22T09:45:34.881Z,3032
2018-11-22T09:46:37.505Z,3044
2018-11-22T09:47:39.811Z,3520
2018-11-22T09:48:41.884Z,3728
2018-11-22T09:49:46.845Z,3528
2018-11-22T09:50:49.434Z,3940
2018-11-22T09:51:51.485Z,3620
2018-11-22T09:52:53.494Z,3924
2018-11-22T09:53:55.525Z,3888
2018-11-22T09:54:57.546Z,3484
2018-11-22T09:55:59.583Z,3276
2018-11-22T09:57:01.596Z,3056
2018-11-22T09:58:03.635Z,2964
2018-11-22T09:59:05.716Z,3092
2018-11-22T10:00:09.038Z,3144
2018-11-22T10:01:11.090Z,3368
2018-11-22T10:02:13.677Z,3816
2018-11-22T10:03:15.873Z,3948
2018-11-22T10:04:19.028Z,3996
2018-11-22T10:05:21.314Z,3808
2018-11-22T10:06:26.156Z,3728
2018-11-22T10:07:28.188Z,3592
2018-11-22T10:08:30.243Z,3732
2018-11-22T10:09:33.961Z,3988
2018-11-22T10:10:36.005Z,4096
2018-11-22T10:11:38.333Z,4336
2018-11-22T10:12:40.739Z,4408
2018-11-22T10:13:44.259Z,4172
2018-11-22T10:14:46.588Z,3620
2018-11-22T10:15:48.617Z,3332
2018-11-22T10:16:50.667Z,3224
2018-11-22T10:17:53.264Z,3292
2018-11-22T10:18:55.277Z,3704
2018-11-22T10:19:57.307Z,3840
2018-11-22T10:20:59.342Z,3644
2018-11-22T10:22:01.362Z,3504
2018-11-22T10:23:04.065Z,3488
2018-11-22T10:24:06.160Z,3572
2018-11-22T10:25:09.659Z,3436
2018-11-22T10:26:11.707Z,3296
2018-11-22T10:27:14.025Z,3332
2018-11-22T10:28:16.357Z,3468
2018-11-22T10:29:18.799Z,3632
2018-11-22T10:30:22.914Z,3728
2018-11-22T10:31:27.898Z,3660
2018-11-22T10:32:30.734Z,3576
2018-11-22T10:33:32.780Z,3756
2018-11-22T10:34:35.458Z,3796
2018-11-22T10:35:37.505Z,3764
2018-11-22T10:36:39.547Z,3860
2018-11-22T10:37:41.623Z,3684
2018-11-22T10:38:45.130Z,3640
2018-11-22T10:39:47.191Z,3620
2018-11-22T10:40:49.227Z,3716
2018-11-22T10:41:51.254Z,3780
2018-11-22T10:42:53.607Z,3724
2018-11-22T10:43:55.638Z,3744
2018-11-22T10:44:57.662Z,3920
2018-11-22T10:45:59.703Z,3996
2018-11-22T10:47:01.735Z,3892
2018-11-22T10:48:04.426Z,3804
2018-11-22T10:49:07.214Z,3780
2018-11-22T10:50:09.269Z,3640
2018-11-22T10:51:11.583Z,3476
2018-11-22T10:52:13.626Z,3420
2018-11-22T10:53:15.669Z,3348
2018-11-22T10:54:18.095Z,3280
2018-11-22T10:55:20.116Z,3380
2018-11-22T10:56:22.157Z,3360
2018-11-22T10:57:24.191Z,3352
2018-11-22T10:58:26.489Z,3608
2018-11-22T10:59:28.534Z,3632
2018-11-22T11:00:30.842Z,3620
2018-11-22T11:01:33.160Z,3704
2018-11-22T11:02:35.182Z,3704
2018-11-22T11:03:37.227Z,3564
2018-11-22T11:04:39.542Z,3412
2018-11-22T11:05:41.846Z,3472
2018-11-22T11:06:44.445Z,3568
2018-11-22T11:07:46.453Z,3608
2018-11-22T11:08:48.785Z,3588
2018-11-22T11:09:51.389Z,3496
2018-11-22T11:10:53.470Z,3460
2018-11-22T11:11:55.487Z,3608
2018-11-22T11:12:57.531Z,3468
2018-11-22T11:13:59.849Z,3264
2018-11-22T11:15:01.933Z,3188
2018-11-22T11:16:04.385Z,3192
2018-11-22T11:17:06.693Z,3072
2018-11-22T11:18:09.016Z,3048
2018-11-22T11:19:11.453Z,3016
2018-11-22T11:20:13.483Z,2992
2018-11-22T11:21:15.510Z,3064
2018-11-22T11:22:17.552Z,3044
2018-11-22T11:23:19.863Z,3052
2018-11-22T11:24:21.912Z,3036
2018-11-22T11:25:26.187Z,3156
2018-11-22T11:26:28.226Z,3096
2018-11-22T11:27:30.644Z,3076
2018-11-22T11:28:32.685Z,3036
2018-11-22T11:29:34.702Z,2940
2018-11-22T11:30:36.733Z,2820
2018-11-22T11:31:38.763Z,2756
2018-11-22T11:32:41.101Z,2752
2018-11-22T11:33:43.126Z,2808
2018-11-22T11:34:45.501Z,2784
2018-11-22T11:35:47.520Z,2812
2018-11-22T11:36:49.893Z,2812
2018-11-22T11:37:51.922Z,2780
2018-11-22T11:38:53.961Z,2736
2018-11-22T11:40:00.563Z,2736
2018-11-22T11:41:03.682Z,2748
2018-11-22T11:42:05.728Z,2820
2018-11-22T11:43:07.764Z,2964
2018-11-22T11:44:10.084Z,2896
2018-11-22T11:45:12.105Z,2924
2018-11-22T11:46:14.138Z,2976
2018-11-22T11:47:16.172Z,2900
2018-11-22T11:48:18.473Z,2944
2018-11-22T11:49:20.528Z,2956
2018-11-22T11:50:22.548Z,2968
2018-11-22T11:51:24.575Z,3024
2018-11-22T11:52:27.189Z,2956
2018-11-22T11:53:32.911Z,2960
2018-11-22T11:54:43.700Z,2928
2018-11-22T11:55:46.002Z,2932
2018-11-22T11:56:48.304Z,2892
2018-11-22T11:57:50.343Z,2908
2018-11-22T11:58:52.683Z,2808
2018-11-22T11:59:55.097Z,2696
2018-11-22T12:00:57.502Z,2620
2018-11-22T12:01:59.540Z,2600
2018-11-22T12:03:01.563Z,2624
2018-11-22T12:04:04.263Z,2612
2018-11-22T12:05:06.310Z,2596
2018-11-22T12:06:08.327Z,2564
2018-11-22T12:07:10.670Z,2580
2018-11-22T12:08:12.700Z,2604
2018-11-22T12:09:14.800Z,2500
2018-11-22T12:10:16.833Z,2388
2018-11-22T12:11:18.934Z,2368
2018-11-22T12:12:20.956Z,2384
2018-11-22T12:13:22.996Z,2360
2018-11-22T12:14:25.394Z,2416
2018-11-22T12:15:27.718Z,2480
2018-11-22T12:16:29.747Z,2500
2018-11-22T12:17:32.057Z,2472
2018-11-22T12:18:36.778Z,2504
2018-11-22T12:19:39.844Z,2556
2018-11-22T12:20:41.872Z,2536
2018-11-22T12:21:44.190Z,2572
2018-11-22T12:22:46.629Z,2576
2018-11-22T12:23:48.928Z,2604
2018-11-22T12:24:50.956Z,2548
2018-11-22T12:25:53.662Z,2476
2018-11-22T12:26:55.975Z,2424
2018-11-22T12:27:58.004Z,2332
2018-11-22T12:29:00.036Z,2208
2018-11-22T12:30:02.631Z,2108
2018-11-22T12:31:06.423Z,1932
2018-11-22T12:32:09.480Z,1828
2018-11-22T12:33:11.523Z,1784
2018-11-22T12:34:13.562Z,1768
2018-11-22T12:35:15.996Z,1780
2018-11-22T12:36:18.029Z,1784
2018-11-22T12:37:21.019Z,1864
2018-11-22T12:38:23.356Z,1956
2018-11-22T12:39:25.366Z,1972
2018-11-22T12:40:27.689Z,2068
2018-11-22T12:41:30.001Z,2028
2018-11-22T12:42:32.434Z,2008
2018-11-22T12:43:34.836Z,2068
2018-11-22T12:44:36.890Z,2156
2018-11-22T12:45:39.200Z,2072
2018-11-22T12:46:41.507Z,2052
2018-11-22T12:47:43.842Z,2032
2018-11-22T12:48:46.263Z,1960
2018-11-22T12:49:48.296Z,1964
2018-11-22T12:50:50.313Z,1864
2018-11-22T12:51:52.365Z,1788
2018-11-22T12:52:54.391Z,1792
2018-11-22T12:53:56.427Z,1736
2018-11-22T12:54:58.463Z,1700
2018-11-22T12:56:00.755Z,1676
2018-11-22T12:57:02.798Z,1632
2018-11-22T12:58:05.411Z,1632
2018-11-22T12:59:07.502Z,1560
2018-11-22T13:00:09.549Z,1516
2018-11-22T13:01:11.585Z,1476
2018-11-22T13:02:18.262Z,1412
2018-11-22T13:03:21.590Z,1360
2018-11-22T13:04:24.012Z,1292
2018-11-22T13:05:26.324Z,1228
2018-11-22T13:06:28.651Z,1140
2018-11-22T13:07:30.975Z,1064
2018-11-22T13:08:33.002Z,1004
2018-11-22T13:09:35.602Z,980
2018-11-22T13:10:37.923Z,976
2018-11-22T13:11:39.941Z,1020
2018-11-22T13:12:49.041Z,1092
2018-11-22T13:13:51.481Z,1192
2018-11-22T13:14:53.802Z,1320
2018-11-22T13:15:55.837Z,1324
2018-11-22T13:16:58.169Z,1360
2018-11-22T13:18:00.817Z,1388
2018-11-22T13:19:03.124Z,1392
2018-11-22T13:20:05.446Z,1368
2018-11-22T13:21:07.457Z,1296
2018-11-22T13:22:09.502Z,1256
2018-11-22T13:23:11.532Z,1248
2018-11-22T13:24:13.572Z,1252
2018-11-22T13:25:15.652Z,1236
2018-11-22T13:26:17.695Z,1252
2018-11-22T13:27:19.731Z,1256
2018-11-22T13:28:22.056Z,1220
2018-11-22T13:29:24.064Z,1192
2018-11-22T13:30:26.782Z,1208
2018-11-22T13:31:29.110Z,1212
2018-11-22T13:32:31.515Z,1172
2018-11-22T13:33:33.852Z,1140
2018-11-22T13:34:35.904Z,1136
2018-11-22T13:35:38.564Z,1136
2018-11-22T13:36:40.904Z,1144
2018-11-22T13:37:43.312Z,1116
2018-11-22T13:38:45.613Z,1104
2018-11-22T13:39:48.416Z,1068
2018-11-22T13:40:50.741Z,1020
2018-11-22T13:41:52.763Z,1000
2018-11-22T13:42:54.800Z,956
2018-11-22T13:43:57.106Z,944
2018-11-22T13:44:59.514Z,936
2018-11-22T13:46:01.863Z,952
2018-11-22T13:47:04.216Z,948
2018-11-22T13:48:06.542Z,916
2018-11-22T13:49:09.143Z,904
2018-11-22T13:50:11.196Z,856
2018-11-22T13:51:13.223Z,816
2018-11-22T13:52:15.248Z,828
2018-11-22T13:53:20.525Z,800
2018-11-22T13:54:22.744Z,800
2018-11-22T13:55:25.118Z,812
2018-11-22T13:56:27.151Z,816
2018-11-22T13:57:29.872Z,788
2018-11-22T13:58:31.891Z,784
2018-11-22T13:59:34.700Z,768
2018-11-22T14:00:36.739Z,748
2018-11-22T14:01:39.057Z,736
2018-11-22T14:02:41.109Z,744
2018-11-22T14:03:43.137Z,756
2018-11-22T14:04:45.176Z,756
2018-11-22T14:05:47.196Z,732
2018-11-22T14:06:49.618Z,708
2018-11-22T14:07:51.670Z,684
2018-11-22T14:08:54.390Z,688
2018-11-22T14:09:56.434Z,700
2018-11-22T14:10:58.711Z,700
2018-11-22T14:12:01.184Z,680
2018-11-22T14:13:03.499Z,676
2018-11-22T14:14:06.504Z,672
2018-11-22T14:15:08.530Z,620
2018-11-22T14:16:10.865Z,584
2018-11-22T14:17:12.897Z,560
2018-11-22T14:18:14.928Z,520
2018-11-22T14:19:16.992Z,504
2018-11-22T14:20:19.090Z,504
2018-11-22T14:21:21.415Z,492
2018-11-22T14:22:23.825Z,476
2018-11-22T14:23:26.144Z,464
2018-11-22T14:24:28.730Z,436
2018-11-22T14:25:30.755Z,408
2018-11-22T14:26:33.752Z,392
2018-11-22T14:27:35.764Z,376
2018-11-22T14:28:37.803Z,372
2018-11-22T14:29:40.117Z,368
2018-11-22T14:30:42.432Z,356
2018-11-22T14:31:44.447Z,336